Time;durP1;ratioP1;P1;durP2;ratioP2;P2;SDS_P1;SDS_P2;PMS_P1;PMS_P2;Temp;Humidity;BMP_temperature;BMP_pressure;BME280_temperature;BME280_humidity;BME280_pressure;Samples;Min_cycle;Max_cycle;Signal;HPM_P1;HPM_P2
2023/01/27 00:02:20;;;;;;;4.30;3.90;;;;;;;6.93;66.00;93765.00;5072774;28;20760;-46
2023/01/27 00:04:47;;;;;;;4.27;3.87;;;;;;;6.92;66.06;93771.81;5071764;28;20206;-47
2023/01/27 00:07:14;;;;;;;5.13;3.83;;;;;;;6.93;66.04;93775.16;5070880;28;20240;-47
2023/01/27 00:09:41;;;;;;;4.00;3.60;;;;;;;6.90;66.07;93760.97;5070889;28;20649;-47
2023/01/27 00:15:18;;;;;;;5.50;4.23;;;;;;;6.94;66.08;93769.13;5048243;28;20364;-46
2023/01/27 00:17:44;;;;;;;4.20;3.80;;;;;;;6.93;66.12;93759.91;5048461;28;20669;-47
2023/01/27 00:20:12;;;;;;;5.43;4.57;;;;;;;6.94;66.03;93756.41;5047516;28;20200;-47
2023/01/27 00:25:22;;;;;;;6.27;3.90;;;;;;;6.94;65.89;93752.13;5047826;28;20201;-47
2023/01/27 00:27:50;;;;;;;6.40;4.87;;;;;;;6.93;66.26;93731.97;5048080;28;20195;-45
2023/01/27 00:30:17;;;;;;;5.30;4.77;;;;;;;6.93;65.92;93737.03;5047682;28;20230;-47
2023/01/27 00:35:29;;;;;;;7.53;4.90;;;;;;;6.93;66.04;93737.03;5039912;28;20198;-48
2023/01/27 00:37:56;;;;;;;5.13;4.43;;;;;;;6.93;65.94;93747.19;5028055;28;20637;-46
2023/01/27 00:40:23;;;;;;;7.10;5.20;;;;;;;6.92;66.00;93735.44;5027978;28;20923;-48
2023/01/27 00:42:51;;;;;;;5.70;4.73;;;;;;;6.93;66.02;93737.03;5028253;28;20742;-47
2023/01/27 00:48:02;;;;;;;7.00;5.00;;;;;;;6.92;65.99;93750.69;5070186;28;20540;-46
2023/01/27 00:50:29;;;;;;;6.33;4.67;;;;;;;6.91;65.98;93749.91;5069634;28;20226;-48
2023/01/27 00:52:57;;;;;;;6.77;4.37;;;;;;;6.91;65.94;93749.06;5069723;28;20294;-45
2023/01/27 00:55:24;;;;;;;6.20;4.97;;;;;;;6.91;65.92;93746.53;5069865;28;20291;-46
2023/01/27 00:57:52;;;;;;;7.00;5.10;;;;;;;6.89;65.89;93740.78;5070654;28;20194;-47
2023/01/27 01:00:19;;;;;;;5.53;4.63;;;;;;;6.88;65.88;93739.19;5072066;28;20194;-52
2023/01/27 01:02:46;;;;;;;5.37;4.87;;;;;;;6.92;65.94;93741.31;5070551;28;20213;-45
2023/01/27 01:05:13;;;;;;;9.20;4.70;;;;;;;6.92;66.21;93738.78;5069348;28;20240;-48
2023/01/27 01:07:40;;;;;;;7.17;5.10;;;;;;;6.90;66.03;93734.75;5069603;28;20243;-45
2023/01/27 01:10:08;;;;;;;5.90;5.07;;;;;;;6.92;66.08;93743.06;5069320;28;20762;-46
2023/01/27 01:12:34;;;;;;;7.00;6.00;;;;;;;6.90;66.02;93738.09;5069760;28;20273;-46
2023/01/27 01:15:04;;;;;;;6.87;5.43;;;;;;;6.93;66.02;93742.91;5069386;28;20194;-45
2023/01/27 01:17:31;;;;;;;6.67;5.33;;;;;;;6.90;66.06;93748.28;5069442;28;20200;-46
2023/01/27 01:19:58;;;;;;;6.30;5.37;;;;;;;6.92;65.87;93737.97;5068923;28;20190;-46
2023/01/27 01:22:25;;;;;;;6.77;5.10;;;;;;;6.90;65.77;93740.66;5069484;28;20190;-47
2023/01/27 01:24:52;;;;;;;7.00;5.73;;;;;;;6.90;66.04;93738.09;5069649;28;20189;-46
2023/01/27 01:27:18;;;;;;;8.20;5.97;;;;;;;6.93;65.76;93748.00;5069146;28;20576;-46
2023/01/27 01:29:45;;;;;;;6.60;5.60;;;;;;;6.93;65.87;93740.38;5069163;28;20764;-46
2023/01/27 01:32:13;;;;;;;5.73;4.97;;;;;;;6.93;65.95;93742.13;5069105;28;20671;-47
2023/01/27 01:34:40;;;;;;;7.70;5.60;;;;;;;6.92;66.07;93748.16;5068961;28;20190;-45
2023/01/27 01:37:07;;;;;;;7.00;4.97;;;;;;;6.93;65.91;93747.19;5068944;28;20263;-46
2023/01/27 01:39:34;;;;;;;6.07;5.30;;;;;;;6.93;65.95;93748.00;5069264;28;20205;-49
2023/01/27 01:42:00;;;;;;;6.63;5.50;;;;;;;6.94;65.92;93756.41;5068902;28;20190;-46
2023/01/27 01:44:29;;;;;;;6.50;5.30;;;;;;;6.93;65.86;93755.63;5069287;28;20190;-47
2023/01/27 01:46:56;;;;;;;6.07;5.37;;;;;;;6.94;65.88;93754.69;5068833;28;20214;-46
2023/01/27 01:49:29;;;;;;;6.33;5.50;;;;;;;6.75;65.84;93722.53;5068752;28;20190;-46
2023/01/27 01:51:59;;;;;;;7.33;5.47;;;;;;;6.93;66.02;93745.47;5070410;28;20198;-46
2023/01/27 01:54:29;;;;;;;7.20;5.60;;;;;;;6.94;65.88;93746.25;5070247;28;20198;-55
2023/01/27 01:57:02;;;;;;;6.97;5.07;;;;;;;6.94;65.85;93736.88;5069759;28;20200;-47
2023/01/27 01:59:32;;;;;;;5.33;4.83;;;;;;;6.93;66.00;93737.84;5068965;28;20185;-48
2023/01/27 02:02:03;;;;;;;7.13;5.27;;;;;;;6.94;66.00;93736.88;5068555;28;20268;-47
2023/01/27 02:04:35;;;;;;;6.13;4.90;;;;;;;6.93;66.00;93725.13;5068553;28;20190;-45
2023/01/27 02:07:08;;;;;;;5.97;5.37;;;;;;;6.93;65.82;93711.63;5068103;28;20183;-48
2023/01/27 02:09:35;;;;;;;6.00;5.20;;;;;;;6.91;65.97;93708.41;5068944;28;20255;-47
2023/01/27 02:12:02;;;;;;;5.80;5.20;;;;;;;6.92;66.06;93705.75;5068986;28;20265;-47
2023/01/27 02:14:28;;;;;;;5.60;5.03;;;;;;;6.93;65.99;93701.47;5068819;28;20190;-46
2023/01/27 02:16:56;;;;;;;5.90;5.30;;;;;;;6.92;66.03;93698.13;5068447;28;20247;-47
2023/01/27 02:19:32;;;;;;;6.50;5.00;;;;;;;6.92;65.95;93689.69;5068802;28;20194;-46
2023/01/27 02:22:03;;;;;;;5.87;5.30;;;;;;;6.92;65.97;93687.94;5069202;28;20186;-47
2023/01/27 02:24:39;;;;;;;5.13;4.63;;;;;;;6.91;65.93;93688.06;5070281;28;20194;-46
2023/01/27 02:27:07;;;;;;;5.43;4.73;;;;;;;6.91;66.09;93680.44;5068773;28;20186;-46
2023/01/27 02:29:34;;;;;;;6.73;4.63;;;;;;;6.87;65.95;93676.63;5068530;28;20186;-48
2023/01/27 02:32:00;;;;;;;5.37;4.87;;;;;;;6.91;66.06;93675.38;5068338;28;20197;-46
2023/01/27 02:34:33;;;;;;;6.40;5.10;;;;;;;6.91;65.91;93681.28;5068464;28;20190;-47
2023/01/27 02:37:04;;;;;;;5.03;4.17;;;;;;;6.93;65.72;93681.94;5068417;28;20190;-47
2023/01/27 02:39:36;;;;;;;5.23;4.40;;;;;;;6.93;66.00;93683.66;5068674;28;20251;-47
2023/01/27 02:42:04;;;;;;;5.60;4.70;;;;;;;6.93;65.96;93678.59;5071470;28;20632;-51
2023/01/27 02:44:33;;;;;;;5.67;5.17;;;;;;;6.90;65.97;93672.03;5073241;28;20544;-47
2023/01/27 02:46:59;;;;;;;5.33;4.83;;;;;;;6.91;66.04;93681.28;5072747;28;20190;-49
2023/01/27 02:49:26;;;;;;;6.23;5.50;;;;;;;6.90;65.77;93683.94;5068417;28;20190;-48
2023/01/27 02:51:53;;;;;;;5.60;4.47;;;;;;;6.77;66.05;93674.09;5068337;28;20621;-47
2023/01/27 02:54:20;;;;;;;6.23;5.17;;;;;;;6.91;66.13;93690.63;5068395;28;20194;-49
2023/01/27 02:56:47;;;;;;;5.67;4.50;;;;;;;6.89;66.08;93692.50;5068829;28;20261;-47
2023/01/27 02:59:13;;;;;;;5.83;4.60;;;;;;;6.91;65.90;93693.16;5068195;28;20567;-48
2023/01/27 03:01:41;;;;;;;5.30;4.80;;;;;;;6.91;66.01;93693.97;5068026;28;20552;-45
2023/01/27 03:04:10;;;;;;;5.87;5.00;;;;;;;6.91;65.90;93683.00;5067770;28;20664;-49
2023/01/27 03:06:37;;;;;;;6.27;4.83;;;;;;;6.92;66.06;93685.41;5068572;28;20335;-46
2023/01/27 03:09:04;;;;;;;6.07;5.03;;;;;;;6.91;66.14;93678.75;5067951;28;20194;-48
2023/01/27 03:14:16;;;;;;;6.07;5.47;;;;;;;6.91;65.89;93673.66;5068228;28;20177;-48
2023/01/27 03:19:28;;;;;;;5.07;4.57;;;;;;;6.92;65.78;93665.09;5071231;28;20193;-49
2023/01/27 03:21:55;;;;;;;5.53;4.70;;;;;;;6.92;65.96;93654.91;5071806;28;20605;-46
2023/01/27 03:24:23;;;;;;;5.97;4.87;;;;;;;6.90;66.15;93654.25;5071984;28;20501;-47
2023/01/27 03:26:49;;;;;;;5.33;4.30;;;;;;;6.93;66.08;93658.25;5071957;28;20198;-46
2023/01/27 03:32:02;;;;;;;4.97;4.50;;;;;;;6.93;66.02;93650.63;5071458;28;20809;-46
2023/01/27 03:34:28;;;;;;;5.70;4.33;;;;;;;6.93;66.08;93648.88;5071337;28;20391;-47
2023/01/27 03:47:54;;;;;;;4.47;4.07;;;;;;;6.92;66.08;93616.00;5071171;28;20584;-47
2023/01/27 03:50:36;;;;;;;6.57;5.33;;;;;;;6.90;66.04;93612.78;5071538;28;20222;-46
2023/01/27 03:53:03;;;;;;;7.73;5.30;;;;;;;6.89;65.96;93627.25;5071357;28;20196;-46
2023/01/27 03:55:30;;;;;;;6.83;5.23;;;;;;;6.81;66.15;93613.63;5071113;28;20187;-48
2023/01/27 03:58:04;;;;;;;5.60;4.97;;;;;;;6.89;66.25;93621.38;5071066;28;20190;-48
2023/01/27 04:00:32;;;;;;;6.60;4.77;;;;;;;6.88;66.03;93619.78;5071060;28;20233;-48
2023/01/27 04:08:28;;;;;;;4.87;4.40;;;;;;;6.87;66.20;93648.66;5071033;28;20877;-45
2023/01/27 04:13:42;;;;;;;5.43;4.90;;;;;;;6.39;66.32;93593.75;5070908;28;20228;-46
2023/01/27 04:16:09;;;;;;;7.37;5.00;;;;;;;6.35;66.12;93603.44;5070636;28;20179;-46
2023/01/27 04:18:37;;;;;;;4.90;4.30;;;;;;;6.88;66.03;93688.38;5070484;28;20216;-48
2023/01/27 04:21:05;;;;;;;6.20;4.97;;;;;;;6.87;66.32;93690.13;5070653;28;20236;-48
2023/01/27 04:23:31;;;;;;;6.07;5.37;;;;;;;6.89;66.22;93687.44;5070919;28;20679;-47
2023/01/27 04:25:59;;;;;;;5.33;4.70;;;;;;;6.87;66.33;93691.88;5070710;28;20198;-47
2023/01/27 04:28:26;;;;;;;5.10;4.60;;;;;;;6.86;66.34;93688.50;5070841;28;20220;-45
2023/01/27 04:30:52;;;;;;;6.57;4.77;;;;;;;6.86;66.26;93695.31;5069426;28;20214;-46
2023/01/27 04:33:19;;;;;;;5.60;4.40;;;;;;;6.88;66.22;93703.63;5070262;28;20236;-46
2023/01/27 04:35:50;;;;;;;5.10;4.60;;;;;;;6.89;66.27;93717.94;5070245;28;20186;-47
2023/01/27 04:38:16;;;;;;;5.30;4.53;;;;;;;6.88;66.28;93698.53;5070420;28;20190;-47
2023/01/27 04:40:43;;;;;;;4.83;4.33;;;;;;;6.90;66.19;93697.44;5070145;28;20251;-47
2023/01/27 04:43:10;;;;;;;5.40;4.57;;;;;;;6.88;66.08;93696.81;5070002;28;20183;-49
2023/01/27 04:45:37;;;;;;;5.60;5.00;;;;;;;6.91;66.11;93716.84;5070156;28;20190;-47
2023/01/27 04:48:05;;;;;;;5.90;4.77;;;;;;;6.92;66.32;93704.94;5069605;28;20201;-45
2023/01/27 04:50:32;;;;;;;5.33;4.83;;;;;;;6.88;66.23;93689.19;5069516;28;20540;-49
2023/01/27 04:53:00;;;;;;;7.67;4.57;;;;;;;6.92;66.17;93693.03;5070060;28;20207;-46
2023/01/27 04:55:27;;;;;;;4.80;4.30;;;;;;;6.92;66.35;93713.38;5070122;28;20198;-45
2023/01/27 04:57:54;;;;;;;6.27;4.90;;;;;;;6.94;66.24;93728.47;5070136;28;20190;-47
2023/01/27 05:00:21;;;;;;;4.63;4.23;;;;;;;6.94;66.14;93716.56;5069270;28;20706;-48
2023/01/27 05:02:48;;;;;;;5.00;4.50;;;;;;;6.93;66.17;93704.78;5069790;28;20201;-47
2023/01/27 05:05:14;;;;;;;5.03;4.20;;;;;;;6.81;66.28;93694.94;5070004;28;20190;-46
2023/01/27 05:07:41;;;;;;;5.53;4.40;;;;;;;6.95;66.13;93714.81;5069515;28;20187;-46
2023/01/27 05:10:11;;;;;;;4.83;4.30;;;;;;;6.96;66.22;93711.34;5069901;28;20182;-47
2023/01/27 05:12:37;;;;;;;3.77;3.47;;;;;;;6.87;66.37;93705.38;5069691;28;20211;-47
2023/01/27 05:15:05;;;;;;;6.00;4.23;;;;;;;6.98;66.34;93715.34;5069517;28;20193;-47
2023/01/27 05:17:32;;;;;;;5.23;4.13;;;;;;;6.99;66.18;93708.50;5069302;28;20194;-46
2023/01/27 05:19:59;;;;;;;6.03;4.20;;;;;;;6.77;66.17;93679.19;5069281;28;20190;-47
2023/01/27 05:22:26;;;;;;;5.70;4.53;;;;;;;6.99;66.24;93716.97;5069685;28;20199;-47
2023/01/27 05:24:53;;;;;;;4.77;4.23;;;;;;;6.98;66.62;93707.72;5069887;28;20190;-48
2023/01/27 05:27:21;;;;;;;4.20;3.80;;;;;;;7.01;66.32;93707.44;5069433;28;20651;-45
2023/01/27 05:29:48;;;;;;;4.67;3.90;;;;;;;7.00;66.32;93702.50;5068823;28;20191;-47
2023/01/27 05:32:14;;;;;;;5.17;3.93;;;;;;;7.00;66.23;93697.44;5069202;28;20218;-47
2023/01/27 05:34:41;;;;;;;4.77;4.10;;;;;;;7.00;66.40;93692.34;5069566;28;20199;-46
2023/01/27 05:37:08;;;;;;;4.63;3.93;;;;;;;6.99;66.27;93688.19;5069576;28;20201;-46
2023/01/27 05:39:35;;;;;;;7.13;4.57;;;;;;;6.98;66.42;93677.22;5069297;28;20194;-48
2023/01/27 05:42:01;;;;;;;5.43;4.87;;;;;;;7.00;66.37;93687.25;5068765;28;20236;-46
2023/01/27 05:44:30;;;;;;;5.27;4.60;;;;;;;6.94;66.33;93675.91;5068938;28;20644;-47
2023/01/27 05:46:57;;;;;;;6.07;4.13;;;;;;;6.95;66.25;93674.97;5069378;28;20598;-49
2023/01/27 05:49:23;;;;;;;5.73;4.80;;;;;;;6.98;66.41;93677.22;5068867;28;20201;-47
2023/01/27 05:51:50;;;;;;;7.20;3.93;;;;;;;6.98;66.54;93684.84;5069394;28;20214;-45
2023/01/27 05:54:17;;;;;;;5.37;4.87;;;;;;;6.96;66.45;93679.13;5069303;28;20706;-47
2023/01/27 05:56:44;;;;;;;6.37;4.97;;;;;;;7.01;66.35;93689.66;5069029;28;20631;-46
2023/01/27 05:59:11;;;;;;;5.17;4.40;;;;;;;6.99;66.43;93689.00;5069137;28;20182;-47
2023/01/27 06:01:39;;;;;;;6.63;4.43;;;;;;;7.04;66.42;93698.75;5068327;28;20237;-48
2023/01/27 06:04:06;;;;;;;5.70;5.00;;;;;;;7.04;66.44;93701.28;5069225;28;20259;-46
2023/01/27 06:06:34;;;;;;;6.20;4.93;;;;;;;7.04;66.25;93698.75;5068752;28;20675;-46
2023/01/27 06:09:01;;;;;;;4.77;4.27;;;;;;;7.07;66.28;93690.03;5069120;28;20683;-47
2023/01/27 06:11:27;;;;;;;5.97;5.03;;;;;;;7.06;66.21;93689.22;5068739;28;20253;-46
2023/01/27 06:13:54;;;;;;;9.10;4.70;;;;;;;7.05;66.33;93692.72;5069133;28;20183;-46
2023/01/27 06:16:22;;;;;;;5.87;5.30;;;;;;;7.05;66.29;93702.88;5066293;28;20653;-51
2023/01/27 06:18:50;;;;;;;6.17;5.57;;;;;;;7.08;66.42;93702.59;5067397;28;20190;-47
2023/01/27 06:21:19;;;;;;;5.20;4.70;;;;;;;7.07;66.21;93688.28;5067397;28;20289;-46
2023/01/27 06:23:46;;;;;;;8.00;4.57;;;;;;;7.10;66.17;93698.16;5067567;28;20194;-44
2023/01/27 06:26:15;;;;;;;8.70;5.40;;;;;;;7.12;66.11;93700.56;5066528;28;20186;-46
2023/01/27 06:28:42;;;;;;;5.50;4.87;;;;;;;7.15;66.28;93710.47;5067631;28;20542;-46
2023/01/27 06:31:11;;;;;;;7.57;5.40;;;;;;;7.17;66.14;93708.59;5068290;28;20222;-45
2023/01/27 06:33:38;;;;;;;5.80;4.83;;;;;;;7.18;65.92;93715.28;5067209;28;20320;-46
2023/01/27 06:36:09;;;;;;;6.27;5.20;;;;;;;7.20;66.13;93711.63;5068098;28;20194;-46
2023/01/27 06:38:36;;;;;;;6.70;5.30;;;;;;;7.22;65.96;93693.72;5068055;28;20202;-46
2023/01/27 06:41:04;;;;;;;6.03;4.90;;;;;;;7.24;65.89;93704.53;5067916;28;20197;-48
2023/01/27 06:43:31;;;;;;;5.27;4.40;;;;;;;7.14;65.85;93696.94;5067146;28;20198;-46
2023/01/27 06:45:58;;;;;;;5.50;4.27;;;;;;;7.31;65.71;93713.19;5068222;28;20191;-46
2023/01/27 06:48:25;;;;;;;5.30;4.70;;;;;;;7.18;65.73;93687.31;5067504;28;20281;-47
2023/01/27 06:50:53;;;;;;;6.70;5.27;;;;;;;7.37;65.92;93711.81;5067759;28;20540;-47
2023/01/27 06:53:21;;;;;;;5.57;4.97;;;;;;;7.39;65.74;93709.94;5068963;28;20683;-47
2023/01/27 06:55:49;;;;;;;5.07;4.40;;;;;;;7.37;65.50;93715.16;5072152;28;20607;-46
2023/01/27 06:58:16;;;;;;;4.90;4.33;;;;;;;7.43;65.70;93721.44;5071418;28;20574;-46
2023/01/27 07:00:43;;;;;;;6.73;4.87;;;;;;;7.43;65.53;93712.06;5071758;28;20226;-46
2023/01/27 07:03:12;;;;;;;4.93;4.43;;;;;;;7.50;65.32;93722.44;5071414;28;20816;-46
2023/01/27 07:05:41;;;;;;;6.50;5.00;;;;;;;7.53;65.48;93724.72;5071576;28;20727;-45
2023/01/27 07:08:08;;;;;;;5.17;4.40;;;;;;;7.58;65.33;93724.28;5072710;28;20197;-47
2023/01/27 07:10:37;;;;;;;6.30;4.67;;;;;;;7.61;65.36;93729.09;5071558;28;20205;-47
2023/01/27 07:13:05;;;;;;;4.93;4.43;;;;;;;7.64;65.19;93734.69;5071544;28;20214;-46
2023/01/27 07:15:32;;;;;;;5.97;5.30;;;;;;;7.65;65.35;93726.13;5071309;28;20218;-47
2023/01/27 07:18:00;;;;;;;5.73;4.50;;;;;;;7.71;65.52;93724.72;5071587;28;20202;-47
2023/01/27 07:20:27;;;;;;;6.73;5.50;;;;;;;7.74;65.06;93724.44;5071275;28;20229;-46
2023/01/27 07:22:56;;;;;;;5.27;4.63;;;;;;;7.76;65.03;93723.34;5072101;28;20206;-46
2023/01/27 07:25:22;;;;;;;5.43;4.27;;;;;;;7.80;64.80;93721.31;5071181;28;20190;-47
2023/01/27 07:27:51;;;;;;;7.60;4.70;;;;;;;7.82;65.00;93718.66;5071282;28;20666;-51
2023/01/27 07:30:18;;;;;;;5.63;4.57;;;;;;;7.85;64.79;93723.44;5070777;28;20652;-46
2023/01/27 07:32:45;;;;;;;4.60;4.10;;;;;;;7.80;64.78;93714.47;5070957;28;20229;-46
2023/01/27 07:35:11;;;;;;;5.17;4.67;;;;;;;7.90;64.72;93728.88;5070819;28;20198;-46
2023/01/27 07:37:38;;;;;;;5.60;4.30;;;;;;;7.94;64.59;93723.34;5070747;28;20179;-47
2023/01/27 07:40:07;;;;;;;5.27;4.57;;;;;;;7.97;64.69;93732.44;5070719;28;20587;-47
2023/01/27 07:42:34;;;;;;;5.67;4.90;;;;;;;8.00;64.37;93732.16;5071107;28;20194;-47
2023/01/27 07:45:02;;;;;;;5.13;4.63;;;;;;;8.00;64.36;93725.31;5070706;28;20193;-46
2023/01/27 07:47:29;;;;;;;7.93;5.30;;;;;;;8.08;64.50;93734.78;5070621;28;20205;-46
2023/01/27 07:49:55;;;;;;;5.73;5.13;;;;;;;8.12;64.30;93728.47;5069829;28;20201;-47
2023/01/27 07:52:22;;;;;;;5.47;4.70;;;;;;;8.16;64.26;93723.84;5070108;28;20718;-47
2023/01/27 07:54:49;;;;;;;4.80;4.30;;;;;;;8.17;64.10;93730.56;5071090;28;20588;-47
2023/01/27 07:57:16;;;;;;;5.90;5.27;;;;;;;8.23;63.92;93732.50;5070694;28;20194;-48
2023/01/27 07:59:43;;;;;;;6.03;4.47;;;;;;;8.25;64.00;93728.88;5068494;28;20733;-46
2023/01/27 08:02:11;;;;;;;6.33;4.60;;;;;;;8.27;63.99;93731.28;5070420;28;20230;-48
2023/01/27 08:04:38;;;;;;;5.33;4.83;;;;;;;8.33;63.71;93729.88;5069867;28;20198;-47
2023/01/27 08:07:06;;;;;;;5.67;4.43;;;;;;;8.29;63.85;93714.13;5070244;28;20198;-46
2023/01/27 08:09:32;;;;;;;5.67;5.00;;;;;;;8.41;63.72;93725.66;5069978;28;20200;-47
2023/01/27 08:11:59;;;;;;;6.37;4.97;;;;;;;8.47;63.49;93720.00;5069898;28;20217;-46
2023/01/27 08:14:26;;;;;;;8.60;5.30;;;;;;;8.57;63.24;93714.00;5070492;28;20685;-46
2023/01/27 08:16:53;;;;;;;5.33;4.83;;;;;;;8.70;63.13;93724.59;5070677;28;20562;-46
2023/01/27 08:19:21;;;;;;;8.30;5.97;;;;;;;8.77;63.07;93723.84;5070436;28;20198;-48
2023/01/27 08:21:48;;;;;;;7.13;5.20;;;;;;;8.82;62.58;93725.94;5070260;28;20606;-47
2023/01/27 08:24:14;;;;;;;9.07;5.53;;;;;;;8.83;62.70;93725.00;5072779;28;20628;-47
2023/01/27 08:26:41;;;;;;;6.20;5.03;;;;;;;8.80;62.46;93727.81;5073572;28;20205;-47
2023/01/27 08:29:08;;;;;;;4.67;4.27;;;;;;;8.83;62.60;93742.03;5072251;28;20183;-47
2023/01/27 08:31:35;;;;;;;6.03;4.70;;;;;;;8.81;62.60;93739.66;5070108;28;20194;-45
2023/01/27 08:34:02;;;;;;;6.00;4.97;;;;;;;8.74;62.60;93736.09;5070544;28;20776;-47
2023/01/27 08:36:30;;;;;;;6.50;4.60;;;;;;;8.68;62.62;93729.03;5069621;28;20198;-48
2023/01/27 08:38:57;;;;;;;7.00;5.07;;;;;;;8.62;62.57;93727.09;5070338;28;20285;-45
2023/01/27 08:41:27;;;;;;;6.07;4.87;;;;;;;8.66;62.69;93746.22;5069905;28;20201;-47
2023/01/27 08:43:55;;;;;;;4.60;4.20;;;;;;;8.52;62.75;93728.00;5069879;28;20203;-46
2023/01/27 08:46:22;;;;;;;5.77;4.53;;;;;;;8.50;62.57;93729.88;5068420;28;20194;-46
2023/01/27 08:48:49;;;;;;;6.90;4.77;;;;;;;8.63;62.72;93741.41;5068211;28;20316;-47
2023/01/27 08:51:15;;;;;;;4.30;3.83;;;;;;;8.63;62.69;93749.06;5068402;28;20269;-47
2023/01/27 08:53:44;;;;;;;7.60;4.40;;;;;;;8.60;62.52;93740.00;5068920;28;20229;-46
2023/01/27 08:56:13;;;;;;;5.50;4.40;;;;;;;8.65;62.67;93747.19;5069573;28;20198;-49
2023/01/27 08:58:41;;;;;;;4.70;4.17;;;;;;;8.67;62.65;93753.72;5069385;28;20187;-46
2023/01/27 09:01:08;;;;;;;4.40;4.00;;;;;;;8.66;62.62;93749.56;5069441;28;20343;-46
2023/01/27 09:03:36;;;;;;;6.03;4.40;;;;;;;8.69;62.40;93754.38;5067020;28;20194;-47
2023/01/27 09:06:03;;;;;;;4.97;3.90;;;;;;;8.70;62.44;93744.97;5069426;28;20190;-46
2023/01/27 09:08:30;;;;;;;6.10;4.13;;;;;;;8.70;62.50;93744.97;5068250;28;20198;-48
2023/01/27 09:10:59;;;;;;;5.57;4.23;;;;;;;8.71;62.30;93744.81;5068278;28;20706;-47
2023/01/27 09:13:27;;;;;;;5.03;4.10;;;;;;;8.63;62.18;93726.13;5069123;28;20221;-46
2023/01/27 09:15:54;;;;;;;4.73;4.30;;;;;;;8.75;62.35;93743.56;5069131;28;20210;-45
2023/01/27 09:18:21;;;;;;;4.20;3.80;;;;;;;8.74;62.19;93733.53;5069249;28;20580;-45
2023/01/27 09:20:48;;;;;;;4.40;3.80;;;;;;;8.79;62.30;93749.97;5068870;28;20191;-45
2023/01/27 09:23:15;;;;;;;4.20;3.80;;;;;;;8.81;62.10;93744.75;5069371;28;20190;-47
2023/01/27 09:25:42;;;;;;;3.93;3.60;;;;;;;8.80;62.09;93732.94;5069155;28;20256;-46
2023/01/27 09:28:15;;;;;;;6.67;4.17;;;;;;;8.87;62.06;93740.78;5069187;28;20186;-47
2023/01/27 09:30:43;;;;;;;5.07;4.07;;;;;;;8.88;61.81;93725.31;5068761;28;20201;-46
2023/01/27 09:33:10;;;;;;;3.57;3.27;;;;;;;8.90;61.80;93728.53;5069507;28;20210;-46
2023/01/27 09:35:43;;;;;;;4.13;3.80;;;;;;;8.88;61.79;93721.97;5068079;28;20233;-46
2023/01/27 09:38:13;;;;;;;4.00;3.60;;;;;;;8.91;61.84;93716.59;5068986;28;20198;-46
2023/01/27 09:40:54;;;;;;;4.87;3.43;;;;;;;8.89;61.78;93715.94;5069109;28;20273;-46
2023/01/27 09:43:41;;;;;;;4.70;4.00;;;;;;;8.85;61.99;93718.00;5068769;28;20648;-47
2023/01/27 09:46:23;;;;;;;4.43;3.40;;;;;;;8.70;61.87;93699.09;5065802;28;20182;-46
2023/01/27 09:49:09;;;;;;;4.57;3.90;;;;;;;8.82;61.94;93708.09;5068562;28;20193;-46
2023/01/27 09:51:48;;;;;;;3.83;3.40;;;;;;;8.67;61.94;93681.56;5067833;28;20175;-47
2023/01/27 09:54:29;;;;;;;3.60;3.30;;;;;;;8.84;61.81;93702.84;5068596;28;20208;-48
2023/01/27 09:57:06;;;;;;;3.97;3.53;;;;;;;8.62;61.98;93663.38;5069144;28;20212;-54
2023/01/27 09:59:50;;;;;;;3.63;3.30;;;;;;;8.77;62.13;93682.28;5068851;28;20211;-46
2023/01/27 10:02:34;;;;;;;4.63;4.10;;;;;;;8.87;62.16;93690.59;5068263;28;20632;-47
2023/01/27 10:05:26;;;;;;;4.53;3.70;;;;;;;8.85;62.01;93682.31;5061273;28;20190;-46
2023/01/27 10:08:17;;;;;;;4.10;3.70;;;;;;;8.89;61.90;93686.13;5068585;28;20660;-47
2023/01/27 10:10:56;;;;;;;6.27;3.97;;;;;;;8.85;62.10;93686.59;5068692;28;20199;-45
2023/01/27 10:13:33;;;;;;;4.00;3.37;;;;;;;8.86;61.99;93683.13;5068245;28;20213;-46
2023/01/27 10:16:32;;;;;;;4.90;3.47;;;;;;;8.80;62.07;93666.66;5068606;28;20186;-47
2023/01/27 10:19:15;;;;;;;3.53;3.23;;;;;;;8.82;62.26;93684.38;5068242;28;20182;-47
2023/01/27 10:21:50;;;;;;;5.67;3.80;;;;;;;8.83;62.08;93686.75;5068294;28;20194;-44
2023/01/27 10:24:31;;;;;;;5.13;3.50;;;;;;;8.72;61.48;93666.59;5068584;28;20190;-46
2023/01/27 10:27:04;;;;;;;5.60;3.70;;;;;;;8.82;62.16;93672.41;5067026;28;20193;-46
2023/01/27 10:29:40;;;;;;;3.60;3.30;;;;;;;8.79;62.13;93672.72;5071600;28;20186;-47
2023/01/27 10:32:12;;;;;;;7.70;3.50;;;;;;;8.82;62.08;93681.81;5072334;28;20198;-46
2023/01/27 10:34:48;;;;;;;4.57;3.50;;;;;;;8.79;62.11;93670.16;5072185;28;20724;-48
2023/01/27 10:37:28;;;;;;;5.37;3.37;;;;;;;8.79;62.21;93676.06;5072304;28;20182;-46
2023/01/27 10:40:03;;;;;;;4.10;3.43;;;;;;;8.79;62.06;93678.59;5074473;28;20186;-49
2023/01/27 10:42:36;;;;;;;5.00;3.67;;;;;;;8.78;62.36;93678.75;5073327;28;20193;-46
2023/01/27 10:45:24;;;;;;;4.53;3.67;;;;;;;8.75;62.32;93674.75;5073272;28;20248;-47
2023/01/27 10:48:11;;;;;;;4.57;4.03;;;;;;;8.76;62.20;93671.28;5071428;28;20187;-47
2023/01/27 10:50:41;;;;;;;4.30;3.60;;;;;;;8.76;62.18;93673.00;5071478;28;20194;-46
2023/01/27 10:53:13;;;;;;;4.17;3.50;;;;;;;8.75;62.18;93673.97;5069135;28;20634;-45
2023/01/27 10:55:46;;;;;;;5.80;3.30;;;;;;;8.75;62.21;93672.22;5070719;28;20191;-46
2023/01/27 10:58:20;;;;;;;5.13;3.60;;;;;;;8.58;62.38;93651.88;5072056;28;20190;-46
2023/01/27 11:00:51;;;;;;;4.47;3.00;;;;;;;8.74;62.21;93670.63;5071431;28;20230;-46
2023/01/27 11:03:25;;;;;;;3.57;3.27;;;;;;;8.53;61.91;93640.41;5068955;28;20247;-46
2023/01/27 11:05:55;;;;;;;6.33;3.93;;;;;;;8.76;62.19;93678.94;5069384;28;20198;-48
2023/01/27 11:08:26;;;;;;;4.60;3.80;;;;;;;8.75;62.42;93671.41;5071737;28;20217;-45
2023/01/27 11:13:42;;;;;;;3.90;3.30;;;;;;;8.76;62.20;93671.28;5071453;28;20283;-47
2023/01/27 11:16:14;;;;;;;5.17;3.60;;;;;;;8.54;61.98;93638.66;5071080;28;20677;-47
2023/01/27 11:18:44;;;;;;;4.33;3.30;;;;;;;8.75;62.07;93662.00;5071262;28;20195;-46
2023/01/27 11:21:17;;;;;;;5.37;3.63;;;;;;;8.78;62.10;93668.56;5071154;28;20218;-46
2023/01/27 11:23:50;;;;;;;4.00;3.60;;;;;;;8.75;62.09;93658.66;5071383;28;20200;-46
2023/01/27 11:26:26;;;;;;;3.83;3.23;;;;;;;8.78;62.12;93661.72;5071195;28;20190;-46
2023/01/27 11:29:15;;;;;;;3.60;3.17;;;;;;;8.76;62.09;93665.34;5071443;28;20279;-46
2023/01/27 11:31:53;;;;;;;3.93;3.63;;;;;;;8.73;62.20;93658.84;5069231;28;20612;-45
2023/01/27 11:34:29;;;;;;;4.00;3.53;;;;;;;8.51;62.03;93624.47;5071595;28;20647;-45
2023/01/27 11:36:56;;;;;;;6.23;3.60;;;;;;;8.63;62.34;93645.38;5071761;28;20186;-50
2023/01/27 11:39:24;;;;;;;4.07;3.43;;;;;;;8.49;62.02;93634.00;5070106;28;20206;-47
2023/01/27 11:41:55;;;;;;;3.70;3.40;;;;;;;8.59;62.27;93643.28;5070030;28;20195;-45
2023/01/27 11:44:25;;;;;;;3.67;3.33;;;;;;;8.63;62.28;93645.38;5071342;28;20248;-44
2023/01/27 11:46:54;;;;;;;4.40;3.73;;;;;;;8.62;62.33;93646.34;5071260;28;20186;-45
2023/01/27 11:49:28;;;;;;;3.67;3.30;;;;;;;8.64;62.07;93644.47;5070823;28;20210;-45
2023/01/27 11:52:04;;;;;;;3.57;3.27;;;;;;;8.63;62.17;93639.50;5069815;28;20201;-45
2023/01/27 11:54:38;;;;;;;4.20;3.70;;;;;;;8.62;62.08;93641.25;5063111;28;20280;-48
2023/01/27 11:57:05;;;;;;;6.90;3.37;;;;;;;8.60;62.19;93639.81;5069713;28;20194;-47
2023/01/27 11:59:40;;;;;;;4.80;3.30;;;;;;;8.57;62.18;93635.81;5070510;28;20207;-45
2023/01/27 12:02:23;;;;;;;3.53;3.23;;;;;;;8.60;62.21;93638.06;5070894;28;20321;-47
2023/01/27 12:04:59;;;;;;;3.70;3.40;;;;;;;8.43;62.27;93611.69;5070320;28;20636;-48
2023/01/27 12:07:39;;;;;;;4.63;3.40;;;;;;;8.59;62.34;93641.53;5071225;28;20233;-47
2023/01/27 12:10:23;;;;;;;5.60;3.47;;;;;;;8.45;62.08;93622.53;5071648;28;20272;-48
2023/01/27 12:12:51;;;;;;;7.03;3.47;;;;;;;8.54;62.17;93638.66;5071248;28;20242;-48
2023/01/27 12:15:18;;;;;;;3.77;3.47;;;;;;;8.58;62.30;93645.03;5071350;28;20740;-46
2023/01/27 12:17:49;;;;;;;3.43;3.13;;;;;;;8.54;62.32;93636.09;5070476;28;20202;-46
2023/01/27 12:20:38;;;;;;;4.27;3.50;;;;;;;8.64;62.14;93639.34;5070802;28;20216;-49
2023/01/27 12:23:17;;;;;;;6.53;4.27;;;;;;;8.71;62.00;93645.44;5070621;28;20598;-47
2023/01/27 12:25:48;;;;;;;3.93;3.53;;;;;;;8.78;61.87;93643.09;5068646;28;20244;-45
2023/01/27 12:28:25;;;;;;;8.10;3.97;;;;;;;8.86;61.91;93643.13;5068393;28;20190;-47
2023/01/27 12:30:55;;;;;;;3.47;3.27;;;;;;;8.83;61.35;93620.47;5071145;28;20190;-50
2023/01/27 12:33:27;;;;;;;4.10;3.67;;;;;;;8.99;61.31;93633.28;5070527;28;20225;-49
2023/01/27 12:36:10;;;;;;;3.70;3.40;;;;;;;8.93;61.07;93602.50;5071156;28;20210;-51